createdAt,value
2023-03-30T00:01:02.733Z,101419.09
2023-03-30T00:03:30.682Z,101432.44
2023-03-30T00:06:03.900Z,101421.09
2023-03-30T00:08:33.505Z,101440.78
2023-03-30T00:11:10.301Z,101446.91
2023-03-30T00:13:38.513Z,101438.94
2023-03-30T00:16:08.554Z,101439.69
2023-03-30T00:18:36.879Z,101421.00
2023-03-30T00:21:05.420Z,101436.31
2023-03-30T00:23:33.716Z,101428.25
2023-03-30T00:26:01.530Z,101416.81
2023-03-30T00:28:31.108Z,101412.59
2023-03-30T00:30:59.253Z,101422.25
2023-03-30T00:33:41.556Z,101412.41
2023-03-30T00:36:12.925Z,101414.88
2023-03-30T00:38:40.771Z,101415.94
2023-03-30T00:41:09.251Z,101413.47
2023-03-30T00:44:02.120Z,101415.16
2023-03-30T00:46:31.306Z,101403.47
2023-03-30T00:49:05.126Z,101402.97
2023-03-30T00:51:36.401Z,101404.66
2023-03-30T00:54:09.382Z,101394.78
2023-03-30T00:56:36.885Z,101392.16
2023-03-30T00:59:04.600Z,101397.56
2023-03-30T01:01:38.617Z,101398.81
2023-03-30T01:04:08.335Z,101405.13
2023-03-30T01:06:40.311Z,101411.38
2023-03-30T01:09:08.629Z,101402.47
2023-03-30T01:11:37.324Z,101400.72
2023-03-30T01:14:08.026Z,101392.03
2023-03-30T01:16:54.256Z,101396.69
2023-03-30T01:19:46.442Z,101384.94
2023-03-30T01:22:59.948Z,101389.19
2023-03-30T01:25:52.274Z,101383.75
2023-03-30T01:28:36.481Z,101381.22
2023-03-30T01:31:42.142Z,101384.03
2023-03-30T01:34:28.112Z,101384.00
2023-03-30T01:37:08.370Z,101383.25
2023-03-30T01:39:55.774Z,101383.00
2023-03-30T01:43:01.695Z,101391.78
2023-03-30T01:45:40.101Z,101384.66
2023-03-30T01:48:17.139Z,101389.00
2023-03-30T01:50:53.946Z,101375.00
2023-03-30T01:53:47.737Z,101382.44
2023-03-30T01:56:33.921Z,101384.06
2023-03-30T01:59:13.942Z,101380.72
2023-03-30T02:01:43.450Z,101380.00
2023-03-30T02:04:12.388Z,101363.16
2023-03-30T02:06:59.763Z,101378.09
2023-03-30T02:09:29.773Z,101365.81
2023-03-30T02:11:57.645Z,101374.66
2023-03-30T02:14:31.231Z,101380.72
2023-03-30T02:17:18.673Z,101371.69
2023-03-30T02:19:47.578Z,101357.66
2023-03-30T02:22:18.951Z,101385.38
2023-03-30T02:24:50.196Z,101377.59
2023-03-30T02:27:18.695Z,101370.41
2023-03-30T02:29:49.287Z,101373.06
2023-03-30T02:32:24.224Z,101382.84
2023-03-30T02:35:18.981Z,101384.59
2023-03-30T02:38:17.169Z,101374.91
2023-03-30T02:40:55.845Z,101370.56
2023-03-30T02:43:26.558Z,101369.75
2023-03-30T02:46:04.159Z,101369.56
2023-03-30T02:48:52.789Z,101370.44
2023-03-30T02:51:35.384Z,101372.41
2023-03-30T02:54:59.370Z,101370.72
2023-03-30T02:58:19.990Z,101367.25
2023-03-30T03:00:56.260Z,101360.06
2023-03-30T03:03:44.153Z,101359.16
2023-03-30T03:06:14.726Z,101343.03
2023-03-30T03:08:48.136Z,101352.69
2023-03-30T03:11:22.722Z,101361.72
2023-03-30T03:13:50.416Z,101356.25
2023-03-30T03:16:18.799Z,101351.59
2023-03-30T03:19:03.749Z,101356.09
2023-03-30T03:21:31.087Z,101350.78
2023-03-30T03:23:58.390Z,101341.28
2023-03-30T03:26:35.791Z,101350.03
2023-03-30T03:29:03.567Z,101345.81
2023-03-30T03:31:31.228Z,101340.59
2023-03-30T03:33:59.555Z,101353.72
2023-03-30T03:36:45.291Z,101350.25
2023-03-30T03:39:13.312Z,101349.44
2023-03-30T03:41:41.058Z,101349.47
2023-03-30T03:44:08.333Z,101355.03
2023-03-30T03:46:35.846Z,101359.66
2023-03-30T03:49:03.522Z,101360.63
2023-03-30T03:51:32.888Z,101346.25
2023-03-30T03:54:00.741Z,101347.00
2023-03-30T03:56:28.285Z,101358.44
2023-03-30T03:58:56.631Z,101368.16
2023-03-30T04:01:24.010Z,101366.44
2023-03-30T04:03:51.294Z,101362.25
2023-03-30T04:06:18.592Z,101366.72
2023-03-30T04:08:45.867Z,101364.06
2023-03-30T04:11:24.703Z,101357.72
2023-03-30T04:14:12.333Z,101363.88
2023-03-30T04:16:59.435Z,101355.88
2023-03-30T04:19:36.166Z,101360.22
2023-03-30T04:22:34.364Z,101358.53
2023-03-30T04:25:32.868Z,101347.91
2023-03-30T04:28:29.637Z,101333.69
2023-03-30T04:31:10.661Z,101337.09
2023-03-30T04:33:52.040Z,101335.44
2023-03-30T04:36:43.448Z,101333.75
2023-03-30T04:39:37.396Z,101346.84
2023-03-30T04:42:15.661Z,101336.38
2023-03-30T04:44:58.652Z,101322.13
2023-03-30T04:47:46.035Z,101317.50
2023-03-30T04:51:07.450Z,101319.34
2023-03-30T04:53:57.513Z,101337.88
2023-03-30T04:56:43.564Z,101324.63
2023-03-30T04:59:29.465Z,101326.47
2023-03-30T05:02:05.642Z,101330.88
2023-03-30T05:04:43.874Z,101318.69
2023-03-30T05:07:29.859Z,101315.97
2023-03-30T05:10:15.755Z,101320.16
2023-03-30T05:13:02.820Z,101325.31
2023-03-30T05:15:54.750Z,101326.06
2023-03-30T05:18:28.285Z,101337.75
2023-03-30T05:21:15.991Z,101327.44
2023-03-30T05:24:13.342Z,101344.84
2023-03-30T05:26:57.920Z,101347.78
2023-03-30T05:29:51.054Z,101339.69
2023-03-30T05:32:43.570Z,101348.44
2023-03-30T05:35:33.736Z,101338.63
2023-03-30T05:38:14.655Z,101342.97
2023-03-30T05:41:07.858Z,101342.09
2023-03-30T05:43:55.667Z,101350.97
2023-03-30T05:46:34.260Z,101334.19
2023-03-30T05:49:17.413Z,101338.34
2023-03-30T05:51:53.698Z,101335.56
2023-03-30T05:54:37.281Z,101339.22
2023-03-30T05:57:24.900Z,101332.16
2023-03-30T06:00:07.930Z,101342.88
2023-03-30T06:02:53.441Z,101347.22
2023-03-30T06:05:24.463Z,101351.66
2023-03-30T06:07:51.878Z,101361.16
2023-03-30T06:10:19.316Z,101354.69
2023-03-30T06:12:48.046Z,101357.66
2023-03-30T06:15:35.638Z,101366.75
2023-03-30T06:18:07.281Z,101366.78
2023-03-30T06:20:37.846Z,101359.97
2023-03-30T06:26:09.360Z,101375.09
2023-03-30T06:28:38.245Z,101385.59
2023-03-30T06:31:10.767Z,101386.31
2023-03-30T06:33:41.563Z,101380.06
2023-03-30T06:36:14.360Z,101385.28
2023-03-30T06:38:45.936Z,101388.03
2023-03-30T06:41:16.433Z,101390.53
2023-03-30T06:43:47.560Z,101386.88
2023-03-30T06:46:16.656Z,101386.91
2023-03-30T06:48:46.990Z,101388.75
2023-03-30T06:51:37.822Z,101393.94
2023-03-30T06:54:07.034Z,101385.09
2023-03-30T06:56:34.717Z,101384.28
2023-03-30T06:59:10.443Z,101396.66
2023-03-30T07:02:16.727Z,101405.50
2023-03-30T07:05:01.492Z,101409.00
2023-03-30T07:07:36.684Z,101402.69
2023-03-30T07:10:10.207Z,101398.09
2023-03-30T07:12:38.417Z,101399.06
2023-03-30T07:15:10.026Z,101397.16
2023-03-30T07:17:37.691Z,101398.06
2023-03-30T07:20:08.306Z,101399.84
2023-03-30T07:22:47.726Z,101412.91
2023-03-30T07:25:16.509Z,101398.66
2023-03-30T07:27:43.920Z,101411.66
2023-03-30T07:30:21.303Z,101402.50
2023-03-30T07:32:52.649Z,101402.59
2023-03-30T07:35:20.551Z,101415.22
2023-03-30T07:37:50.618Z,101403.66
2023-03-30T07:40:20.083Z,101403.41
2023-03-30T07:42:48.192Z,101404.09
2023-03-30T07:45:16.667Z,101399.59
2023-03-30T07:47:45.855Z,101400.16
2023-03-30T07:50:13.363Z,101407.97
2023-03-30T07:52:40.856Z,101403.47
2023-03-30T07:55:11.081Z,101394.53
2023-03-30T07:57:44.222Z,101397.16
2023-03-30T08:00:14.520Z,101398.03
2023-03-30T08:03:02.045Z,101399.13
2023-03-30T08:05:30.556Z,101404.31
2023-03-30T08:08:27.822Z,101403.38
2023-03-30T08:10:55.591Z,101407.94
2023-03-30T08:13:24.646Z,101403.25
2023-03-30T08:15:54.327Z,101405.22
2023-03-30T08:18:21.966Z,101408.00
2023-03-30T08:20:51.940Z,101407.94
2023-03-30T08:23:26.739Z,101405.88
2023-03-30T08:25:58.961Z,101395.25
2023-03-30T08:28:26.856Z,101398.75
2023-03-30T08:30:54.739Z,101404.59
2023-03-30T08:33:24.321Z,101394.81
2023-03-30T08:35:52.630Z,101398.16
2023-03-30T08:38:20.070Z,101401.81
2023-03-30T08:40:49.386Z,101407.91
2023-03-30T08:43:32.062Z,101414.84
2023-03-30T08:46:01.715Z,101412.28
2023-03-30T08:48:34.052Z,101415.53
2023-03-30T08:51:14.795Z,101407.50
2023-03-30T08:53:42.366Z,101403.72
2023-03-30T08:56:46.283Z,101406.09
2023-03-30T08:59:35.634Z,101410.38
2023-03-30T09:02:11.942Z,101415.66
2023-03-30T09:05:08.470Z,101414.88
2023-03-30T09:07:55.013Z,101412.44
2023-03-30T09:10:24.366Z,101412.31
2023-03-30T09:13:01.768Z,101407.06
2023-03-30T09:15:36.079Z,101408.84
2023-03-30T09:18:29.314Z,101416.00
2023-03-30T09:20:59.726Z,101407.97
2023-03-30T09:24:02.868Z,101417.66
2023-03-30T09:26:48.203Z,101419.47
2023-03-30T09:29:24.844Z,101426.47
2023-03-30T09:32:06.579Z,101426.38
2023-03-30T09:34:56.792Z,101428.25
2023-03-30T09:37:24.971Z,101429.19
2023-03-30T09:39:52.342Z,101425.78
2023-03-30T09:42:34.149Z,101413.19
2023-03-30T09:45:25.397Z,101419.34
2023-03-30T09:47:52.718Z,101421.91
2023-03-30T09:50:26.858Z,101414.00
2023-03-30T09:53:00.915Z,101402.81
2023-03-30T09:55:32.861Z,101400.13
2023-03-30T09:58:18.700Z,101401.63
2023-03-30T10:01:00.724Z,101399.56
2023-03-30T10:03:28.342Z,101397.75
2023-03-30T10:06:02.112Z,101398.59
2023-03-30T10:08:30.381Z,101400.09
2023-03-30T10:10:59.667Z,101393.88
2023-03-30T10:13:37.457Z,101381.28
2023-03-30T10:16:08.483Z,101387.56
2023-03-30T10:18:44.588Z,101374.78
2023-03-30T10:21:19.209Z,101379.16
2023-03-30T10:24:01.693Z,101385.97
2023-03-30T10:26:30.660Z,101379.97
2023-03-30T10:29:07.430Z,101387.47
2023-03-30T10:31:37.591Z,101381.03
2023-03-30T10:34:18.802Z,101382.50
2023-03-30T10:36:50.173Z,101370.28
2023-03-30T10:39:27.786Z,101367.53
2023-03-30T10:41:59.670Z,101361.16
2023-03-30T10:44:32.362Z,101352.09
2023-03-30T10:47:51.204Z,101350.69
2023-03-30T10:50:56.448Z,101341.75
2023-03-30T10:53:40.633Z,101341.44
2023-03-30T10:56:23.323Z,101350.19
2023-03-30T10:59:26.670Z,101334.69
2023-03-30T11:02:17.637Z,101325.72
2023-03-30T11:05:14.430Z,101326.00
2023-03-30T11:07:47.575Z,101320.34
2023-03-30T11:10:20.887Z,101318.72
2023-03-30T11:12:56.929Z,101318.03
2023-03-30T11:15:37.639Z,101314.25
2023-03-30T11:18:21.922Z,101322.28
2023-03-30T11:21:01.329Z,101321.78
2023-03-30T11:23:47.657Z,101330.97
2023-03-30T11:26:36.159Z,101321.94
2023-03-30T11:29:18.485Z,101332.00
2023-03-30T11:31:51.975Z,101332.53
2023-03-30T11:34:35.800Z,101323.66
2023-03-30T11:37:35.602Z,101321.56
2023-03-30T11:40:19.961Z,101328.50
2023-03-30T11:42:47.844Z,101308.94
2023-03-30T11:46:04.491Z,101313.41
2023-03-30T11:48:44.009Z,101306.56
2023-03-30T11:51:18.868Z,101304.84
2023-03-30T11:54:13.296Z,101291.16
2023-03-30T11:56:49.780Z,101285.72
2023-03-30T11:59:22.440Z,101290.22
2023-03-30T12:02:06.553Z,101285.41
2023-03-30T12:04:52.811Z,101294.66
2023-03-30T12:07:44.593Z,101286.31
2023-03-30T12:10:21.242Z,101277.50
2023-03-30T12:12:51.979Z,101268.28
2023-03-30T12:15:42.927Z,101270.25
2023-03-30T12:18:34.559Z,101269.41
2023-03-30T12:21:01.963Z,101257.81
2023-03-30T12:26:49.109Z,101234.56
2023-03-30T12:32:30.980Z,101241.22
2023-03-30T12:34:58.851Z,101236.50
2023-03-30T12:37:36.174Z,101238.91
2023-03-30T12:40:22.717Z,101223.81
2023-03-30T12:43:10.950Z,101222.13
2023-03-30T12:46:14.115Z,101216.22
2023-03-30T12:48:57.362Z,101220.03
2023-03-30T12:51:54.839Z,101218.44
2023-03-30T12:54:49.179Z,101218.19
2023-03-30T12:57:34.961Z,101223.34
2023-03-30T13:00:48.064Z,101199.94
2023-03-30T13:03:29.443Z,101216.94
2023-03-30T13:05:59.049Z,101205.97
2023-03-30T13:08:35.950Z,101215.94
2023-03-30T13:11:14.141Z,101209.31
2023-03-30T13:14:14.346Z,101201.06
2023-03-30T13:16:51.449Z,101199.63
2023-03-30T13:19:32.538Z,101200.19
2023-03-30T13:22:03.371Z,101194.47
2023-03-30T13:24:30.813Z,101176.47
2023-03-30T13:27:16.962Z,101173.91
2023-03-30T13:30:08.782Z,101178.25
2023-03-30T13:33:16.848Z,101154.63
2023-03-30T13:36:06.398Z,101159.31
2023-03-30T13:38:40.387Z,101151.81
2023-03-30T13:41:22.521Z,101144.13
2023-03-30T13:43:58.959Z,101140.72
2023-03-30T13:46:40.938Z,101135.59
2023-03-30T13:49:51.698Z,101138.22
2023-03-30T13:52:32.341Z,101134.03
2023-03-30T13:55:02.027Z,101134.94
2023-03-30T13:57:36.864Z,101133.41
2023-03-30T14:00:22.425Z,101129.28
2023-03-30T14:02:49.823Z,101122.41
2023-03-30T14:05:24.180Z,101123.28
2023-03-30T14:07:59.008Z,101119.78
2023-03-30T14:10:27.375Z,101117.38
2023-03-30T14:12:56.947Z,101105.78
2023-03-30T14:15:34.958Z,101105.56
2023-03-30T14:18:04.681Z,101105.13
2023-03-30T14:20:46.882Z,101107.78
2023-03-30T14:23:36.455Z,101098.19
2023-03-30T14:26:13.107Z,101083.00
2023-03-30T14:28:42.597Z,101095.09
2023-03-30T14:31:19.038Z,101101.97
2023-03-30T14:33:47.453Z,101088.69
2023-03-30T14:36:18.307Z,101067.91
2023-03-30T14:38:49.093Z,101058.44
2023-03-30T14:41:24.971Z,101053.31
2023-03-30T14:44:07.629Z,101040.75
2023-03-30T14:46:43.340Z,101018.03
2023-03-30T14:49:31.888Z,101014.97
2023-03-30T14:52:10.079Z,101022.00
2023-03-30T14:54:38.558Z,101032.53
2023-03-30T14:57:08.977Z,101044.00
2023-03-30T14:59:47.335Z,101027.34
2023-03-30T15:02:21.165Z,101014.84
2023-03-30T15:04:50.625Z,101027.72
2023-03-30T15:07:20.829Z,101020.84
2023-03-30T15:09:54.580Z,101017.47
2023-03-30T15:12:44.601Z,101002.53
2023-03-30T15:15:15.657Z,101006.94
2023-03-30T15:17:50.002Z,101013.16
2023-03-30T15:20:18.626Z,101021.22
2023-03-30T15:22:50.232Z,101020.72
2023-03-30T15:25:20.700Z,101007.09
2023-03-30T15:28:09.571Z,101019.59
2023-03-30T15:30:39.865Z,101019.56
2023-03-30T15:33:19.849Z,101031.94
2023-03-30T15:35:50.639Z,101023.59
2023-03-30T15:38:19.271Z,101020.50
2023-03-30T15:40:52.750Z,100991.97
2023-03-30T15:43:22.716Z,101011.63
2023-03-30T15:45:57.453Z,101000.34
2023-03-30T15:48:32.005Z,100973.81
2023-03-30T15:51:33.229Z,100993.88
2023-03-30T15:54:03.713Z,100989.50
2023-03-30T15:56:39.886Z,100987.03
2023-03-30T15:59:16.029Z,100986.28
2023-03-30T16:01:54.016Z,100981.84
2023-03-30T16:04:24.354Z,100968.34
2023-03-30T16:06:52.872Z,100958.69
2023-03-30T16:09:20.282Z,100975.81
2023-03-30T16:11:47.709Z,100975.34
2023-03-30T16:14:18.233Z,100970.06
2023-03-30T16:16:46.077Z,100966.44
2023-03-30T16:19:17.402Z,100973.31
2023-03-30T16:21:45.544Z,100978.91
2023-03-30T16:24:13.297Z,100968.31
2023-03-30T16:26:41.291Z,100962.94
2023-03-30T16:29:35.083Z,100957.56
2023-03-30T16:32:03.133Z,100956.75
2023-03-30T16:34:30.867Z,100961.25
2023-03-30T16:36:58.276Z,100950.66
2023-03-30T16:39:27.934Z,100958.56
2023-03-30T16:41:56.035Z,100954.47
2023-03-30T16:44:24.804Z,100957.03
2023-03-30T16:46:53.051Z,100957.63
2023-03-30T16:49:23.517Z,100955.22
2023-03-30T16:51:55.087Z,100944.59
2023-03-30T16:54:31.956Z,100960.59
2023-03-30T16:57:03.076Z,100951.59
2023-03-30T16:59:32.154Z,100945.34
2023-03-30T17:02:00.165Z,100945.88
2023-03-30T17:04:27.932Z,100933.53
2023-03-30T17:06:55.764Z,100936.53
2023-03-30T17:09:23.518Z,100937.94
2023-03-30T17:11:51.138Z,100936.59
2023-03-30T17:14:20.222Z,100936.22
2023-03-30T17:16:47.864Z,100934.22
2023-03-30T17:19:15.346Z,100927.97
2023-03-30T17:21:43.867Z,100928.31
2023-03-30T17:24:16.958Z,100929.03
2023-03-30T17:26:44.576Z,100922.00
2023-03-30T17:29:15.020Z,100918.50
2023-03-30T17:31:45.868Z,100929.16
2023-03-30T17:34:13.987Z,100934.59
2023-03-30T17:36:41.909Z,100931.78
2023-03-30T17:39:13.235Z,100935.41
2023-03-30T17:41:41.235Z,100923.88
2023-03-30T17:44:09.457Z,100921.28
2023-03-30T17:46:37.125Z,100926.00
2023-03-30T17:49:04.563Z,100913.78
2023-03-30T17:51:31.937Z,100937.63
2023-03-30T17:53:59.321Z,100911.25
2023-03-30T17:56:26.795Z,100926.47
2023-03-30T17:58:54.156Z,100933.44
2023-03-30T18:01:21.564Z,100922.03
2023-03-30T18:03:49.188Z,100920.22
2023-03-30T18:06:17.104Z,100924.75
2023-03-30T18:08:44.550Z,100934.59
2023-03-30T18:11:11.981Z,100929.41
2023-03-30T18:13:39.336Z,100937.44
2023-03-30T18:16:07.029Z,100923.22
2023-03-30T18:18:34.556Z,100923.38
2023-03-30T18:21:04.627Z,100927.78
2023-03-30T18:23:34.435Z,100953.47
2023-03-30T18:26:08.328Z,100946.50
2023-03-30T18:28:40.530Z,100948.38
2023-03-30T18:31:08.948Z,100949.19
2023-03-30T18:33:36.603Z,100938.91
2023-03-30T18:36:07.556Z,100930.78
2023-03-30T18:38:35.894Z,100946.50
2023-03-30T18:41:03.479Z,100940.34
2023-03-30T18:43:31.072Z,100935.84
2023-03-30T18:46:01.745Z,100940.59
2023-03-30T18:48:30.621Z,100936.97
2023-03-30T18:50:58.479Z,100923.78
2023-03-30T18:53:28.420Z,100923.53
2023-03-30T18:56:00.333Z,100931.81
2023-03-30T18:58:30.504Z,100915.72
2023-03-30T19:00:58.034Z,100922.31
2023-03-30T19:03:33.124Z,100921.31
2023-03-30T19:06:01.035Z,100930.97
2023-03-30T19:08:28.986Z,100942.69
2023-03-30T19:10:57.829Z,100926.81
2023-03-30T19:13:26.544Z,100936.31
2023-03-30T19:15:54.968Z,100936.66
2023-03-30T19:18:22.451Z,100949.13
2023-03-30T19:20:51.024Z,100935.53
2023-03-30T19:23:21.711Z,100947.03
2023-03-30T19:25:49.548Z,100940.03
2023-03-30T19:28:17.524Z,100934.72
2023-03-30T19:30:45.453Z,100931.25
2023-03-30T19:33:16.525Z,100926.81
2023-03-30T19:35:45.354Z,100931.63
2023-03-30T19:38:14.093Z,100942.84
2023-03-30T19:40:41.802Z,100942.78
2023-03-30T19:43:09.756Z,100936.72
2023-03-30T19:45:37.711Z,100932.34
2023-03-30T19:48:05.594Z,100936.84
2023-03-30T19:50:33.104Z,100969.72
2023-03-30T19:53:00.530Z,100941.56
2023-03-30T19:55:27.986Z,100946.19
2023-03-30T19:57:55.795Z,100956.03
2023-03-30T20:00:23.449Z,100947.00
2023-03-30T20:02:54.593Z,100964.66
2023-03-30T20:05:23.783Z,100956.63
2023-03-30T20:07:51.986Z,100956.63
2023-03-30T20:10:22.810Z,100951.19
2023-03-30T20:12:51.312Z,100950.56
2023-03-30T20:15:20.231Z,100955.97
2023-03-30T20:17:48.093Z,100964.03
2023-03-30T20:20:22.653Z,100954.44
2023-03-30T20:22:53.427Z,100950.91
2023-03-30T20:25:21.809Z,100949.28
2023-03-30T20:27:49.485Z,100976.69
2023-03-30T20:30:17.122Z,100968.16
2023-03-30T20:32:53.022Z,100975.22
2023-03-30T20:35:27.498Z,100972.38
2023-03-30T20:37:55.474Z,100962.88
2023-03-30T20:40:24.131Z,100968.22
2023-03-30T20:42:51.504Z,100951.44
2023-03-30T20:45:26.056Z,100972.81
2023-03-30T20:47:53.936Z,100967.28
2023-03-30T20:50:21.528Z,100978.03
2023-03-30T20:52:48.891Z,100968.22
2023-03-30T20:55:16.987Z,100964.91
2023-03-30T20:57:44.345Z,100946.50
2023-03-30T21:00:12.721Z,100955.66
2023-03-30T21:02:40.858Z,100952.50
2023-03-30T21:05:09.058Z,100964.44
2023-03-30T21:07:38.404Z,100980.34
2023-03-30T21:10:06.712Z,100969.78
2023-03-30T21:12:34.224Z,100955.28
2023-03-30T21:15:01.665Z,100962.97
2023-03-30T21:17:29.145Z,100951.09
2023-03-30T21:19:56.564Z,100963.09
2023-03-30T21:22:23.918Z,100965.09
2023-03-30T21:25:17.119Z,100969.31
2023-03-30T21:27:44.428Z,100962.81
2023-03-30T21:30:13.472Z,100965.03
2023-03-30T21:32:41.530Z,100964.38
2023-03-30T21:35:09.208Z,100953.19
2023-03-30T21:37:36.604Z,100957.91
2023-03-30T21:40:06.582Z,100958.78
2023-03-30T21:42:35.296Z,100951.34
2023-03-30T21:45:02.771Z,100958.44
2023-03-30T21:47:30.498Z,100952.06
2023-03-30T21:49:57.859Z,100955.03
2023-03-30T21:52:25.176Z,100964.91
2023-03-30T21:54:52.702Z,100942.88
2023-03-30T21:57:20.471Z,100956.69
2023-03-30T21:59:47.831Z,100954.94
2023-03-30T22:02:15.498Z,100952.22
2023-03-30T22:04:44.357Z,100958.59
2023-03-30T22:07:11.908Z,100941.19
2023-03-30T22:09:39.363Z,100958.16
2023-03-30T22:12:07.694Z,100964.06
2023-03-30T22:14:35.696Z,100953.31
2023-03-30T22:17:03.559Z,100943.09
2023-03-30T22:19:32.018Z,100938.69
2023-03-30T22:21:59.932Z,100942.34
2023-03-30T22:24:27.448Z,100932.53
2023-03-30T22:26:54.802Z,100924.00
2023-03-30T22:29:23.274Z,100925.63
2023-03-30T22:31:52.892Z,100915.84
2023-03-30T22:34:21.032Z,100910.94
2023-03-30T22:36:48.427Z,100915.22
2023-03-30T22:39:16.701Z,100929.44
2023-03-30T22:41:44.035Z,100929.00
2023-03-30T22:44:11.390Z,100934.97
2023-03-30T22:46:38.930Z,100916.50
2023-03-30T22:49:06.236Z,100926.59
2023-03-30T22:51:34.112Z,100911.97
2023-03-30T22:54:01.501Z,100905.25
2023-03-30T22:56:29.516Z,100923.91
2023-03-30T22:58:58.839Z,100916.72
2023-03-30T23:01:29.114Z,100908.81
2023-03-30T23:03:59.513Z,100909.63
2023-03-30T23:06:27.213Z,100908.56
2023-03-30T23:08:54.627Z,100915.63
2023-03-30T23:11:22.065Z,100915.63
2023-03-30T23:13:49.926Z,100904.13
2023-03-30T23:16:17.500Z,100896.00
2023-03-30T23:18:44.904Z,100891.81
2023-03-30T23:21:14.196Z,100913.94
2023-03-30T23:23:42.068Z,100910.41
2023-03-30T23:26:11.018Z,100904.38
2023-03-30T23:28:41.343Z,100908.31
2023-03-30T23:31:12.063Z,100913.84
2023-03-30T23:33:40.534Z,100904.38
2023-03-30T23:36:09.557Z,100913.31
2023-03-30T23:38:37.794Z,100905.44
2023-03-30T23:41:06.372Z,100919.97
2023-03-30T23:43:33.770Z,100916.97
2023-03-30T23:46:01.191Z,100900.25
2023-03-30T23:48:28.787Z,100913.94
2023-03-30T23:50:57.172Z,100886.59
2023-03-30T23:53:26.629Z,100913.84
2023-03-30T23:55:54.756Z,100921.25
2023-03-30T23:58:22.374Z,100918.56
